sensor_id;sensor_type;location;lat;lon;timestamp;pressure;altitude;pressure_sealevel;temperature;humidity
60244;BME280;46106;51.468;5.814;2022-09-30T00:01:24;100459.66;;;6.66;100.00
60244;BME280;46106;51.468;5.814;2022-09-30T00:03:52;100474.84;;;6.42;100.00
60244;BME280;46106;51.468;5.814;2022-09-30T00:06:17;100462.81;;;6.47;100.00
60244;BME280;46106;51.468;5.814;2022-09-30T00:08:45;100472.63;;;6.62;100.00
60244;BME280;46106;51.468;5.814;2022-09-30T00:11:13;100470.53;;;6.66;100.00
60244;BME280;46106;51.468;5.814;2022-09-30T00:13:41;100464.31;;;6.51;100.00
60244;BME280;46106;51.468;5.814;2022-09-30T00:16:08;100463.91;;;6.57;100.00
60244;BME280;46106;51.468;5.814;2022-09-30T00:18:34;100461.53;;;6.25;100.00
60244;BME280;46106;51.468;5.814;2022-09-30T00:21:01;100470.66;;;6.24;100.00
60244;BME280;46106;51.468;5.814;2022-09-30T00:23:27;100465.22;;;6.24;100.00
60244;BME280;46106;51.468;5.814;2022-09-30T00:26:04;100470.66;;;6.51;100.00
60244;BME280;46106;51.468;5.814;2022-09-30T00:28:31;100473.03;;;6.43;100.00
60244;BME280;46106;51.468;5.814;2022-09-30T00:31:02;100477.13;;;6.36;100.00
60244;BME280;46106;51.468;5.814;2022-09-30T00:33:29;100458.00;;;6.10;100.00
60244;BME280;46106;51.468;5.814;2022-09-30T00:35:54;100478.97;;;6.08;100.00
60244;BME280;46106;51.468;5.814;2022-09-30T00:38:20;100471.59;;;5.96;100.00
60244;BME280;46106;51.468;5.814;2022-09-30T00:40:46;100467.72;;;6.00;100.00
60244;BME280;46106;51.468;5.814;2022-09-30T00:43:12;100476.31;;;6.21;100.00
60244;BME280;46106;51.468;5.814;2022-09-30T00:45:44;100473.44;;;6.10;100.00
60244;BME280;46106;51.468;5.814;2022-09-30T00:48:17;100473.44;;;6.10;100.00
60244;BME280;46106;51.468;5.814;2022-09-30T00:50:48;100471.28;;;6.15;100.00
60244;BME280;46106;51.468;5.814;2022-09-30T00:53:28;100467.94;;;5.97;100.00
60244;BME280;46106;51.468;5.814;2022-09-30T00:56:04;100478.69;;;5.98;100.00
60244;BME280;46106;51.468;5.814;2022-09-30T01:01:00;100473.75;;;5.91;100.00
60244;BME280;46106;51.468;5.814;2022-09-30T01:03:40;100457.25;;;5.94;100.00
60244;BME280;46106;51.468;5.814;2022-09-30T01:06:06;100467.19;;;6.22;100.00
60244;BME280;46106;51.468;5.814;2022-09-30T01:08:35;100467.75;;;6.27;100.00
60244;BME280;46106;51.468;5.814;2022-09-30T01:11:01;100449.88;;;6.10;100.00
60244;BME280;46106;51.468;5.814;2022-09-30T01:13:28;100489.47;;;6.00;100.00
60244;BME280;46106;51.468;5.814;2022-09-30T01:16:16;100494.25;;;5.96;100.00
60244;BME280;46106;51.468;5.814;2022-09-30T01:18:57;100493.19;;;5.84;100.00
60244;BME280;46106;51.468;5.814;2022-09-30T01:24:46;100485.69;;;6.02;100.00
60244;BME280;46106;51.468;5.814;2022-09-30T01:27:33;100487.38;;;6.18;100.00
60244;BME280;46106;51.468;5.814;2022-09-30T01:38:54;100486.06;;;6.11;100.00
60244;BME280;46106;51.468;5.814;2022-09-30T01:41:31;100483.00;;;5.74;100.00
60244;BME280;46106;51.468;5.814;2022-09-30T01:44:11;100488.25;;;5.62;100.00
60244;BME280;46106;51.468;5.814;2022-09-30T01:46:42;100474.91;;;5.59;100.00
60244;BME280;46106;51.468;5.814;2022-09-30T01:55:05;100503.94;;;5.86;100.00
60244;BME280;46106;51.468;5.814;2022-09-30T02:00:16;100480.19;;;5.75;100.00
60244;BME280;46106;51.468;5.814;2022-09-30T02:02:55;100484.25;;;5.82;100.00
60244;BME280;46106;51.468;5.814;2022-09-30T02:05:32;100484.66;;;5.62;100.00
60244;BME280;46106;51.468;5.814;2022-09-30T02:08:05;100490.19;;;5.75;100.00
60244;BME280;46106;51.468;5.814;2022-09-30T02:10:38;100492.13;;;5.73;100.00
60244;BME280;46106;51.468;5.814;2022-09-30T02:13:15;100493.53;;;5.37;100.00
60244;BME280;46106;51.468;5.814;2022-09-30T02:15:47;100489.53;;;5.57;100.00
60244;BME280;46106;51.468;5.814;2022-09-30T02:18:24;100487.88;;;5.54;100.00
60244;BME280;46106;51.468;5.814;2022-09-30T02:20:55;100483.72;;;5.63;100.00
60244;BME280;46106;51.468;5.814;2022-09-30T02:23:25;100482.25;;;5.57;100.00
60244;BME280;46106;51.468;5.814;2022-09-30T02:26:01;100487.50;;;5.46;100.00
60244;BME280;46106;51.468;5.814;2022-09-30T02:28:34;100485.28;;;5.38;100.00
60244;BME280;46106;51.468;5.814;2022-09-30T02:31:02;100488.09;;;5.37;100.00
60244;BME280;46106;51.468;5.814;2022-09-30T02:33:51;100483.25;;;5.42;100.00
60244;BME280;46106;51.468;5.814;2022-09-30T02:36:33;100485.19;;;5.40;100.00
60244;BME280;46106;51.468;5.814;2022-09-30T02:39:12;100498.72;;;5.54;100.00
60244;BME280;46106;51.468;5.814;2022-09-30T02:41:44;100495.94;;;5.41;100.00
60244;BME280;46106;51.468;5.814;2022-09-30T02:44:12;100497.97;;;5.38;100.00
60244;BME280;46106;51.468;5.814;2022-09-30T02:49:32;100485.94;;;5.27;100.00
60244;BME280;46106;51.468;5.814;2022-09-30T02:52:29;100500.78;;;5.22;100.00
60244;BME280;46106;51.468;5.814;2022-09-30T03:00:04;100506.13;;;5.23;100.00
60244;BME280;46106;51.468;5.814;2022-09-30T03:02:30;100502.81;;;5.32;100.00
60244;BME280;46106;51.468;5.814;2022-09-30T03:04:55;100506.09;;;5.38;100.00
60244;BME280;46106;51.468;5.814;2022-09-30T03:07:21;100502.91;;;5.31;100.00
60244;BME280;46106;51.468;5.814;2022-09-30T03:09:46;100494.09;;;5.27;100.00
60244;BME280;46106;51.468;5.814;2022-09-30T03:14:51;100510.88;;;5.34;100.00
60244;BME280;46106;51.468;5.814;2022-09-30T03:28:35;100519.50;;;5.55;100.00
60244;BME280;46106;51.468;5.814;2022-09-30T03:31:14;100526.41;;;5.61;100.00
60244;BME280;46106;51.468;5.814;2022-09-30T03:36:37;100522.78;;;5.60;100.00
60244;BME280;46106;51.468;5.814;2022-09-30T03:41:45;100519.78;;;5.50;100.00
60244;BME280;46106;51.468;5.814;2022-09-30T03:44:17;100526.09;;;5.51;100.00
60244;BME280;46106;51.468;5.814;2022-09-30T03:46:48;100526.00;;;5.38;100.00
60244;BME280;46106;51.468;5.814;2022-09-30T03:49:24;100530.56;;;5.52;100.00
60244;BME280;46106;51.468;5.814;2022-09-30T03:51:52;100532.31;;;5.39;100.00
60244;BME280;46106;51.468;5.814;2022-09-30T03:54:18;100506.97;;;5.09;100.00
60244;BME280;46106;51.468;5.814;2022-09-30T03:56:44;100525.91;;;5.25;100.00
60244;BME280;46106;51.468;5.814;2022-09-30T03:59:20;100525.44;;;5.33;100.00
60244;BME280;46106;51.468;5.814;2022-09-30T04:01:47;100523.38;;;5.22;100.00
60244;BME280;46106;51.468;5.814;2022-09-30T04:04:13;100519.88;;;5.20;100.00
60244;BME280;46106;51.468;5.814;2022-09-30T04:06:38;100518.25;;;5.32;100.00
60244;BME280;46106;51.468;5.814;2022-09-30T04:09:03;100524.53;;;5.32;100.00
60244;BME280;46106;51.468;5.814;2022-09-30T04:11:29;100525.50;;;5.17;100.00
60244;BME280;46106;51.468;5.814;2022-09-30T04:13:54;100542.84;;;5.29;100.00
60244;BME280;46106;51.468;5.814;2022-09-30T04:16:20;100533.34;;;5.07;100.00
60244;BME280;46106;51.468;5.814;2022-09-30T04:18:45;100544.75;;;4.98;100.00
60244;BME280;46106;51.468;5.814;2022-09-30T04:21:13;100536.41;;;5.01;100.00
60244;BME280;46106;51.468;5.814;2022-09-30T04:23:40;100545.25;;;5.05;100.00
60244;BME280;46106;51.468;5.814;2022-09-30T04:26:08;100555.13;;;5.06;100.00
60244;BME280;46106;51.468;5.814;2022-09-30T04:28:34;100558.22;;;5.00;100.00
60244;BME280;46106;51.468;5.814;2022-09-30T04:31:00;100562.09;;;4.95;100.00
60244;BME280;46106;51.468;5.814;2022-09-30T04:33:26;100556.50;;;4.99;100.00
60244;BME280;46106;51.468;5.814;2022-09-30T04:35:54;100570.16;;;4.97;100.00
60244;BME280;46106;51.468;5.814;2022-09-30T04:38:19;100579.91;;;5.00;100.00
60244;BME280;46106;51.468;5.814;2022-09-30T04:40:45;100573.63;;;4.99;100.00
60244;BME280;46106;51.468;5.814;2022-09-30T04:43:10;100585.38;;;5.14;100.00
60244;BME280;46106;51.468;5.814;2022-09-30T04:45:36;100580.09;;;4.96;100.00
60244;BME280;46106;51.468;5.814;2022-09-30T04:48:03;100585.16;;;5.03;100.00
60244;BME280;46106;51.468;5.814;2022-09-30T04:50:28;100587.97;;;5.01;100.00
60244;BME280;46106;51.468;5.814;2022-09-30T04:52:54;100585.03;;;4.90;100.00
60244;BME280;46106;51.468;5.814;2022-09-30T04:55:21;100590.44;;;4.90;100.00
60244;BME280;46106;51.468;5.814;2022-09-30T04:57:48;100591.94;;;4.95;100.00
60244;BME280;46106;51.468;5.814;2022-09-30T05:00:13;100596.53;;;5.09;100.00
60244;BME280;46106;51.468;5.814;2022-09-30T05:02:42;100596.78;;;5.05;100.00
60244;BME280;46106;51.468;5.814;2022-09-30T05:05:08;100613.47;;;5.13;100.00
60244;BME280;46106;51.468;5.814;2022-09-30T05:07:33;100614.47;;;5.12;100.00
60244;BME280;46106;51.468;5.814;2022-09-30T05:09:58;100609.16;;;4.94;100.00
60244;BME280;46106;51.468;5.814;2022-09-30T05:12:24;100620.56;;;4.85;100.00
60244;BME280;46106;51.468;5.814;2022-09-30T05:14:50;100612.84;;;4.93;100.00
60244;BME280;46106;51.468;5.814;2022-09-30T05:17:16;100620.38;;;4.88;100.00
60244;BME280;46106;51.468;5.814;2022-09-30T05:19:41;100626.97;;;4.84;100.00
60244;BME280;46106;51.468;5.814;2022-09-30T05:22:06;100633.75;;;4.91;100.00
60244;BME280;46106;51.468;5.814;2022-09-30T05:24:32;100629.50;;;4.87;100.00
60244;BME280;46106;51.468;5.814;2022-09-30T05:26:57;100632.03;;;4.90;100.00
60244;BME280;46106;51.468;5.814;2022-09-30T05:29:23;100624.00;;;5.03;100.00
60244;BME280;46106;51.468;5.814;2022-09-30T05:31:48;100621.44;;;5.16;100.00
60244;BME280;46106;51.468;5.814;2022-09-30T05:34:13;100629.31;;;5.21;100.00
60244;BME280;46106;51.468;5.814;2022-09-30T05:36:42;100626.38;;;5.09;100.00
60244;BME280;46106;51.468;5.814;2022-09-30T05:39:09;100632.38;;;5.00;100.00
60244;BME280;46106;51.468;5.814;2022-09-30T05:41:34;100631.97;;;5.06;100.00
60244;BME280;46106;51.468;5.814;2022-09-30T05:44:00;100627.63;;;5.04;100.00
60244;BME280;46106;51.468;5.814;2022-09-30T05:46:25;100636.88;;;5.15;100.00
60244;BME280;46106;51.468;5.814;2022-09-30T05:48:52;100632.66;;;5.10;100.00
60244;BME280;46106;51.468;5.814;2022-09-30T05:51:18;100628.22;;;5.09;100.00
60244;BME280;46106;51.468;5.814;2022-09-30T05:53:44;100638.63;;;5.17;100.00
60244;BME280;46106;51.468;5.814;2022-09-30T05:56:10;100636.44;;;5.07;100.00
60244;BME280;46106;51.468;5.814;2022-09-30T05:58:36;100643.06;;;4.87;100.00
60244;BME280;46106;51.468;5.814;2022-09-30T06:01:13;100656.53;;;4.89;100.00
60244;BME280;46106;51.468;5.814;2022-09-30T06:03:39;100653.00;;;4.87;100.00
60244;BME280;46106;51.468;5.814;2022-09-30T06:06:05;100656.63;;;4.87;100.00
60244;BME280;46106;51.468;5.814;2022-09-30T06:08:31;100657.22;;;4.92;100.00
60244;BME280;46106;51.468;5.814;2022-09-30T06:10:56;100657.28;;;5.07;100.00
60244;BME280;46106;51.468;5.814;2022-09-30T06:13:25;100668.84;;;5.10;100.00
60244;BME280;46106;51.468;5.814;2022-09-30T06:15:58;100665.69;;;5.02;100.00
60244;BME280;46106;51.468;5.814;2022-09-30T06:18:24;100676.38;;;5.05;100.00
60244;BME280;46106;51.468;5.814;2022-09-30T06:20:54;100674.94;;;5.14;100.00
60244;BME280;46106;51.468;5.814;2022-09-30T06:23:20;100680.28;;;5.15;100.00
60244;BME280;46106;51.468;5.814;2022-09-30T06:25:49;100668.97;;;5.23;100.00
60244;BME280;46106;51.468;5.814;2022-09-30T06:28:14;100677.47;;;5.47;100.00
60244;BME280;46106;51.468;5.814;2022-09-30T06:30:40;100671.84;;;5.50;100.00
60244;BME280;46106;51.468;5.814;2022-09-30T06:33:05;100695.97;;;5.85;100.00
60244;BME280;46106;51.468;5.814;2022-09-30T06:35:32;100691.22;;;5.89;100.00
60244;BME280;46106;51.468;5.814;2022-09-30T06:37:57;100698.44;;;6.04;100.00
60244;BME280;46106;51.468;5.814;2022-09-30T06:40:23;100699.81;;;5.97;100.00
60244;BME280;46106;51.468;5.814;2022-09-30T06:42:50;100704.25;;;6.13;100.00
60244;BME280;46106;51.468;5.814;2022-09-30T06:45:16;100701.25;;;6.17;100.00
60244;BME280;46106;51.468;5.814;2022-09-30T06:47:44;100694.63;;;6.36;100.00
60244;BME280;46106;51.468;5.814;2022-09-30T06:50:10;100707.72;;;6.72;100.00
60244;BME280;46106;51.468;5.814;2022-09-30T06:52:36;100711.50;;;6.70;100.00
60244;BME280;46106;51.468;5.814;2022-09-30T06:55:01;100705.00;;;6.72;100.00
60244;BME280;46106;51.468;5.814;2022-09-30T06:57:27;100706.59;;;6.89;100.00
60244;BME280;46106;51.468;5.814;2022-09-30T06:59:53;100707.53;;;7.03;100.00
60244;BME280;46106;51.468;5.814;2022-09-30T07:02:21;100716.47;;;7.05;100.00
60244;BME280;46106;51.468;5.814;2022-09-30T07:04:46;100712.72;;;7.20;100.00
60244;BME280;46106;51.468;5.814;2022-09-30T07:07:12;100705.63;;;7.17;100.00
60244;BME280;46106;51.468;5.814;2022-09-30T07:09:38;100714.56;;;7.20;100.00
60244;BME280;46106;51.468;5.814;2022-09-30T07:12:03;100704.44;;;7.22;100.00
60244;BME280;46106;51.468;5.814;2022-09-30T07:14:30;100712.19;;;7.28;100.00
60244;BME280;46106;51.468;5.814;2022-09-30T07:16:56;100712.22;;;7.41;100.00
60244;BME280;46106;51.468;5.814;2022-09-30T07:19:22;100709.13;;;7.60;100.00
60244;BME280;46106;51.468;5.814;2022-09-30T07:21:49;100708.38;;;7.58;100.00
60244;BME280;46106;51.468;5.814;2022-09-30T07:24:15;100700.94;;;7.60;100.00
60244;BME280;46106;51.468;5.814;2022-09-30T07:26:41;100706.94;;;7.65;100.00
60244;BME280;46106;51.468;5.814;2022-09-30T07:29:10;100714.97;;;7.94;100.00
60244;BME280;46106;51.468;5.814;2022-09-30T07:31:37;100696.75;;;8.07;100.00
60244;BME280;46106;51.468;5.814;2022-09-30T07:34:05;100716.16;;;8.15;100.00
60244;BME280;46106;51.468;5.814;2022-09-30T07:36:31;100716.16;;;8.02;100.00
60244;BME280;46106;51.468;5.814;2022-09-30T07:38:57;100717.34;;;8.37;100.00
60244;BME280;46106;51.468;5.814;2022-09-30T07:41:24;100715.50;;;8.50;100.00
60244;BME280;46106;51.468;5.814;2022-09-30T07:43:52;100725.06;;;8.56;100.00
60244;BME280;46106;51.468;5.814;2022-09-30T07:46:23;100722.13;;;8.46;100.00
60244;BME280;46106;51.468;5.814;2022-09-30T07:48:51;100717.50;;;8.72;100.00
60244;BME280;46106;51.468;5.814;2022-09-30T07:51:33;100714.75;;;8.85;100.00
60244;BME280;46106;51.468;5.814;2022-09-30T07:54:01;100718.84;;;9.04;100.00
60244;BME280;46106;51.468;5.814;2022-09-30T07:56:28;100715.69;;;9.21;100.00
60244;BME280;46106;51.468;5.814;2022-09-30T07:58:55;100724.53;;;9.25;100.00
60244;BME280;46106;51.468;5.814;2022-09-30T08:01:22;100718.59;;;9.31;100.00
60244;BME280;46106;51.468;5.814;2022-09-30T08:03:52;100712.63;;;9.50;100.00
60244;BME280;46106;51.468;5.814;2022-09-30T08:06:18;100727.03;;;9.87;100.00
60244;BME280;46106;51.468;5.814;2022-09-30T08:08:45;100720.97;;;10.06;100.00
60244;BME280;46106;51.468;5.814;2022-09-30T08:11:11;100713.50;;;9.97;100.00
60244;BME280;46106;51.468;5.814;2022-09-30T08:13:37;100713.94;;;10.38;100.00
60244;BME280;46106;51.468;5.814;2022-09-30T08:16:03;100727.25;;;10.42;100.00
60244;BME280;46106;51.468;5.814;2022-09-30T08:18:28;100735.22;;;10.91;100.00
60244;BME280;46106;51.468;5.814;2022-09-30T08:20:55;100723.34;;;11.01;100.00
60244;BME280;46106;51.468;5.814;2022-09-30T08:23:20;100734.31;;;11.45;100.00
60244;BME280;46106;51.468;5.814;2022-09-30T08:25:46;100741.31;;;11.70;100.00
60244;BME280;46106;51.468;5.814;2022-09-30T08:28:12;100739.31;;;11.40;100.00
60244;BME280;46106;51.468;5.814;2022-09-30T08:30:37;100733.72;;;11.95;100.00
60244;BME280;46106;51.468;5.814;2022-09-30T08:33:04;100730.25;;;11.93;100.00
60244;BME280;46106;51.468;5.814;2022-09-30T08:35:29;100733.59;;;12.18;100.00
60244;BME280;46106;51.468;5.814;2022-09-30T08:37:55;100742.81;;;12.38;100.00
60244;BME280;46106;51.468;5.814;2022-09-30T08:40:30;100738.19;;;12.69;100.00
60244;BME280;46106;51.468;5.814;2022-09-30T08:45:44;100746.53;;;12.98;100.00
60244;BME280;46106;51.468;5.814;2022-09-30T08:51:09;100735.03;;;13.14;100.00
60244;BME280;46106;51.468;5.814;2022-09-30T08:53:42;100728.44;;;13.36;100.00
60244;BME280;46106;51.468;5.814;2022-09-30T08:56:22;100725.69;;;13.46;100.00
60244;BME280;46106;51.468;5.814;2022-09-30T08:58:51;100724.09;;;14.02;100.00
60244;BME280;46106;51.468;5.814;2022-09-30T09:01:31;100733.38;;;13.52;100.00
60244;BME280;46106;51.468;5.814;2022-09-30T09:03:59;100723.59;;;14.16;100.00
60244;BME280;46106;51.468;5.814;2022-09-30T09:13:11;100738.69;;;14.22;100.00
60244;BME280;46106;51.468;5.814;2022-09-30T09:16:01;100744.97;;;14.62;100.00
60244;BME280;46106;51.468;5.814;2022-09-30T09:24:21;100728.94;;;15.31;100.00
60244;BME280;46106;51.468;5.814;2022-09-30T09:26:48;100715.53;;;15.18;100.00
60244;BME280;46106;51.468;5.814;2022-09-30T09:29:42;100717.13;;;15.20;100.00
60244;BME280;46106;51.468;5.814;2022-09-30T09:32:13;100714.41;;;15.11;100.00
60244;BME280;46106;51.468;5.814;2022-09-30T09:34:40;100721.28;;;15.24;100.00
60244;BME280;46106;51.468;5.814;2022-09-30T09:42:30;100734.63;;;15.01;100.00
60244;BME280;46106;51.468;5.814;2022-09-30T09:44:59;100729.13;;;15.47;100.00
60244;BME280;46106;51.468;5.814;2022-09-30T09:47:26;100734.81;;;15.63;100.00
60244;BME280;46106;51.468;5.814;2022-09-30T09:49:57;100735.84;;;15.80;100.00
60244;BME280;46106;51.468;5.814;2022-09-30T09:54:53;100732.06;;;15.82;100.00
60244;BME280;46106;51.468;5.814;2022-09-30T09:57:24;100702.41;;;15.84;100.00
60244;BME280;46106;51.468;5.814;2022-09-30T10:00:00;100745.03;;;15.81;100.00
60244;BME280;46106;51.468;5.814;2022-09-30T10:03:04;100754.47;;;15.78;100.00
60244;BME280;46106;51.468;5.814;2022-09-30T10:05:34;100746.84;;;15.62;100.00
60244;BME280;46106;51.468;5.814;2022-09-30T10:10:46;100718.63;;;15.69;100.00
60244;BME280;46106;51.468;5.814;2022-09-30T10:13:17;100741.22;;;16.26;100.00
60244;BME280;46106;51.468;5.814;2022-09-30T10:15:43;100715.97;;;15.77;100.00
60244;BME280;46106;51.468;5.814;2022-09-30T10:18:18;100726.78;;;15.88;100.00
60244;BME280;46106;51.468;5.814;2022-09-30T10:20:59;100730.94;;;15.74;100.00
60244;BME280;46106;51.468;5.814;2022-09-30T10:23:32;100727.56;;;16.25;100.00
60244;BME280;46106;51.468;5.814;2022-09-30T10:28:31;100718.50;;;16.67;100.00
60244;BME280;46106;51.468;5.814;2022-09-30T10:31:01;100717.31;;;16.35;100.00
60244;BME280;46106;51.468;5.814;2022-09-30T10:33:52;100711.41;;;16.30;100.00
60244;BME280;46106;51.468;5.814;2022-09-30T10:36:19;100726.63;;;16.34;100.00
60244;BME280;46106;51.468;5.814;2022-09-30T10:41:21;100726.19;;;16.47;100.00
60244;BME280;46106;51.468;5.814;2022-09-30T10:43:49;100727.03;;;16.47;100.00
60244;BME280;46106;51.468;5.814;2022-09-30T10:46:42;100716.59;;;16.94;100.00
60244;BME280;46106;51.468;5.814;2022-09-30T10:51:58;100728.47;;;16.51;100.00
60244;BME280;46106;51.468;5.814;2022-09-30T10:54:35;100720.34;;;16.50;100.00
60244;BME280;46106;51.468;5.814;2022-09-30T10:57:26;100731.81;;;16.63;100.00
60244;BME280;46106;51.468;5.814;2022-09-30T11:00:02;100719.97;;;16.45;100.00
60244;BME280;46106;51.468;5.814;2022-09-30T11:03:07;100722.88;;;16.43;100.00
60244;BME280;46106;51.468;5.814;2022-09-30T11:05:42;100698.13;;;16.33;100.00
60244;BME280;46106;51.468;5.814;2022-09-30T11:08:21;100721.06;;;16.60;100.00
60244;BME280;46106;51.468;5.814;2022-09-30T11:10:58;100716.19;;;16.28;100.00
60244;BME280;46106;51.468;5.814;2022-09-30T11:13:55;100718.63;;;16.57;100.00
60244;BME280;46106;51.468;5.814;2022-09-30T11:19:08;100716.88;;;16.48;100.00
60244;BME280;46106;51.468;5.814;2022-09-30T11:21:59;100726.44;;;15.73;100.00
60244;BME280;46106;51.468;5.814;2022-09-30T11:24:31;100721.47;;;15.95;100.00
60244;BME280;46106;51.468;5.814;2022-09-30T11:40:36;100719.84;;;15.48;100.00
60244;BME280;46106;51.468;5.814;2022-09-30T11:43:38;100720.91;;;15.73;100.00
60244;BME280;46106;51.468;5.814;2022-09-30T11:46:21;100712.19;;;15.78;100.00
60244;BME280;46106;51.468;5.814;2022-09-30T11:57:26;100698.72;;;16.80;100.00
60244;BME280;46106;51.468;5.814;2022-09-30T12:00:17;100673.75;;;16.98;100.00
60244;BME280;46106;51.468;5.814;2022-09-30T12:02:46;100699.34;;;17.08;100.00
60244;BME280;46106;51.468;5.814;2022-09-30T12:05:58;100696.03;;;16.96;100.00
60244;BME280;46106;51.468;5.814;2022-09-30T12:08:29;100693.50;;;16.77;100.00
60244;BME280;46106;51.468;5.814;2022-09-30T12:11:06;100693.19;;;16.80;100.00
60244;BME280;46106;51.468;5.814;2022-09-30T12:13:39;100675.66;;;16.97;100.00
60244;BME280;46106;51.468;5.814;2022-09-30T12:16:09;100698.81;;;16.96;100.00
60244;BME280;46106;51.468;5.814;2022-09-30T12:18:40;100664.16;;;16.49;100.00
60244;BME280;46106;51.468;5.814;2022-09-30T12:21:27;100682.50;;;16.85;100.00
60244;BME280;46106;51.468;5.814;2022-09-30T12:24:12;100685.16;;;16.68;100.00
60244;BME280;46106;51.468;5.814;2022-09-30T12:26:44;100660.78;;;16.29;100.00
60244;BME280;46106;51.468;5.814;2022-09-30T12:29:39;100675.56;;;16.46;100.00
60244;BME280;46106;51.468;5.814;2022-09-30T12:48:04;100651.75;;;16.88;100.00
60244;BME280;46106;51.468;5.814;2022-09-30T12:50:44;100637.75;;;16.89;100.00
60244;BME280;46106;51.468;5.814;2022-09-30T12:53:27;100642.78;;;16.94;100.00
60244;BME280;46106;51.468;5.814;2022-09-30T12:56:05;100649.44;;;17.51;100.00
60244;BME280;46106;51.468;5.814;2022-09-30T12:58:37;100625.28;;;16.85;100.00
60244;BME280;46106;51.468;5.814;2022-09-30T13:01:17;100656.13;;;16.99;100.00
60244;BME280;46106;51.468;5.814;2022-09-30T13:06:24;100631.66;;;16.78;100.00
60244;BME280;46106;51.468;5.814;2022-09-30T13:11:33;100641.69;;;16.44;100.00
60244;BME280;46106;51.468;5.814;2022-09-30T13:14:29;100640.25;;;16.32;100.00
60244;BME280;46106;51.468;5.814;2022-09-30T13:19:42;100636.88;;;16.46;100.00
60244;BME280;46106;51.468;5.814;2022-09-30T13:27:40;100631.72;;;16.86;100.00
60244;BME280;46106;51.468;5.814;2022-09-30T13:32:43;100617.06;;;16.67;100.00
60244;BME280;46106;51.468;5.814;2022-09-30T13:35:32;100619.53;;;16.79;100.00
60244;BME280;46106;51.468;5.814;2022-09-30T13:43:44;100616.38;;;16.65;100.00
60244;BME280;46106;51.468;5.814;2022-09-30T13:48:47;100612.59;;;16.66;100.00
60244;BME280;46106;51.468;5.814;2022-09-30T13:51:14;100611.66;;;17.00;100.00
60244;BME280;46106;51.468;5.814;2022-09-30T13:53:48;100603.16;;;16.85;100.00
60244;BME280;46106;51.468;5.814;2022-09-30T13:56:24;100601.56;;;16.75;100.00
60244;BME280;46106;51.468;5.814;2022-09-30T14:01:49;100600.59;;;16.92;100.00
60244;BME280;46106;51.468;5.814;2022-09-30T14:21:29;100587.94;;;16.81;100.00
60244;BME280;46106;51.468;5.814;2022-09-30T14:24:01;100576.53;;;16.84;100.00
60244;BME280;46106;51.468;5.814;2022-09-30T14:32:09;100567.56;;;16.82;100.00
60244;BME280;46106;51.468;5.814;2022-09-30T14:34:36;100540.72;;;16.66;100.00
60244;BME280;46106;51.468;5.814;2022-09-30T14:37:03;100559.56;;;16.71;100.00
60244;BME280;46106;51.468;5.814;2022-09-30T14:39:31;100565.59;;;16.66;100.00
60244;BME280;46106;51.468;5.814;2022-09-30T14:41:59;100555.00;;;16.45;100.00
60244;BME280;46106;51.468;5.814;2022-09-30T14:44:32;100548.28;;;16.48;100.00
60244;BME280;46106;51.468;5.814;2022-09-30T14:47:02;100564.03;;;16.64;100.00
60244;BME280;46106;51.468;5.814;2022-09-30T14:49:31;100548.97;;;16.50;100.00
60244;BME280;46106;51.468;5.814;2022-09-30T14:51:59;100565.06;;;16.54;100.00
60244;BME280;46106;51.468;5.814;2022-09-30T14:54:28;100563.53;;;16.68;100.00
60244;BME280;46106;51.468;5.814;2022-09-30T14:56:57;100560.41;;;16.63;100.00
60244;BME280;46106;51.468;5.814;2022-09-30T14:59:29;100541.88;;;16.47;100.00
60244;BME280;46106;51.468;5.814;2022-09-30T15:02:09;100556.88;;;16.37;100.00
60244;BME280;46106;51.468;5.814;2022-09-30T15:04:38;100547.44;;;16.13;100.00
60244;BME280;46106;51.468;5.814;2022-09-30T15:07:09;100554.22;;;16.19;100.00
60244;BME280;46106;51.468;5.814;2022-09-30T15:09:38;100549.16;;;16.14;100.00
60244;BME280;46106;51.468;5.814;2022-09-30T15:12:19;100537.16;;;15.97;100.00
60244;BME280;46106;51.468;5.814;2022-09-30T15:14:54;100546.69;;;16.03;100.00
60244;BME280;46106;51.468;5.814;2022-09-30T15:17:28;100528.66;;;15.90;100.00
60244;BME280;46106;51.468;5.814;2022-09-30T15:19:56;100522.72;;;15.77;100.00
60244;BME280;46106;51.468;5.814;2022-09-30T15:22:26;100531.06;;;15.85;100.00
60244;BME280;46106;51.468;5.814;2022-09-30T15:24:53;100536.94;;;15.90;100.00
60244;BME280;46106;51.468;5.814;2022-09-30T15:27:22;100523.50;;;15.87;100.00
60244;BME280;46106;51.468;5.814;2022-09-30T15:30:24;100542.16;;;15.93;100.00
60244;BME280;46106;51.468;5.814;2022-09-30T15:32:48;100525.63;;;15.75;100.00
60244;BME280;46106;51.468;5.814;2022-09-30T15:35:21;100533.81;;;15.85;100.00
60244;BME280;46106;51.468;5.814;2022-09-30T15:37:49;100544.59;;;15.96;100.00
60244;BME280;46106;51.468;5.814;2022-09-30T15:40:19;100531.06;;;15.85;100.00
60244;BME280;46106;51.468;5.814;2022-09-30T15:43:06;100554.97;;;16.03;100.00
60244;BME280;46106;51.468;5.814;2022-09-30T15:45:34;100554.28;;;16.01;100.00
60244;BME280;46106;51.468;5.814;2022-09-30T15:48:05;100566.03;;;16.03;100.00
60244;BME280;46106;51.468;5.814;2022-09-30T15:56:41;100543.72;;;15.96;100.00
60244;BME280;46106;51.468;5.814;2022-09-30T15:59:06;100563.22;;;15.94;100.00
60244;BME280;46106;51.468;5.814;2022-09-30T16:01:38;100553.19;;;15.93;100.00
60244;BME280;46106;51.468;5.814;2022-09-30T16:04:10;100553.69;;;15.89;100.00
60244;BME280;46106;51.468;5.814;2022-09-30T16:09:16;100548.75;;;15.74;100.00
60244;BME280;46106;51.468;5.814;2022-09-30T16:14:42;100558.00;;;15.65;100.00